createdAt,value
2018-06-28T00:01:19.359Z,98166.91
2018-06-28T00:03:49.706Z,98166.88
2018-06-28T00:06:19.056Z,98162.79
2018-06-28T00:08:47.838Z,98162.88
2018-06-28T00:11:16.458Z,98165.02
2018-06-28T00:13:45.113Z,98166.18
2018-06-28T00:16:13.781Z,98167.44
2018-06-28T00:18:42.566Z,98160.83
2018-06-28T00:21:11.994Z,98165.83
2018-06-28T00:23:41.353Z,98156.75
2018-06-28T00:26:10.751Z,98158.55
2018-06-28T00:28:39.445Z,98168.89
2018-06-28T00:31:08.795Z,98165.00
2018-06-28T00:33:37.969Z,98165.36
2018-06-28T00:36:06.999Z,98164.27
2018-06-28T00:38:35.929Z,98163.78
2018-06-28T00:41:05.016Z,98165.48
2018-06-28T00:43:34.522Z,98158.81
2018-06-28T00:46:03.230Z,98168.09
2018-06-28T00:48:32.110Z,98170.58
2018-06-28T00:51:00.970Z,98162.35
2018-06-28T00:53:29.609Z,98163.16
2018-06-28T00:55:58.645Z,98158.55
2018-06-28T00:58:28.069Z,98157.02
2018-06-28T01:00:56.997Z,98157.09
2018-06-28T01:03:25.671Z,98153.59
2018-06-28T01:05:54.376Z,98149.70
2018-06-28T01:08:23.073Z,98146.33
2018-06-28T01:10:51.722Z,98146.72
2018-06-28T01:13:21.001Z,98143.86
2018-06-28T01:15:49.882Z,98145.06
2018-06-28T01:18:18.561Z,98139.63
2018-06-28T01:20:47.714Z,98134.30
2018-06-28T01:23:16.753Z,98134.13
2018-06-28T01:25:45.391Z,98126.47
2018-06-28T01:28:14.092Z,98128.63
2018-06-28T01:30:43.090Z,98125.30
2018-06-28T01:33:11.747Z,98116.52
2018-06-28T01:35:40.432Z,98119.52
2018-06-28T01:38:09.113Z,98115.02
2018-06-28T01:40:38.411Z,98107.69
2018-06-28T01:43:28.856Z,98109.05
2018-06-28T01:45:58.675Z,98106.50
2018-06-28T01:48:27.709Z,98106.64
2018-06-28T01:50:56.873Z,98102.22
2018-06-28T01:53:25.903Z,98098.69
2018-06-28T01:55:54.515Z,98099.39
2018-06-28T01:58:23.802Z,98099.74
2018-06-28T02:00:53.399Z,98096.80
2018-06-28T02:03:22.179Z,98101.60
2018-06-28T02:05:51.995Z,98104.13
2018-06-28T02:08:21.205Z,98100.38
2018-06-28T02:10:50.605Z,98100.45
2018-06-28T02:13:19.712Z,98096.95
2018-06-28T02:15:48.413Z,98092.86
2018-06-28T02:18:17.126Z,98095.23
2018-06-28T02:20:46.114Z,98098.66
2018-06-28T02:23:15.761Z,98100.28
2018-06-28T02:25:45.084Z,98103.23
2018-06-28T02:28:13.788Z,98097.56
2018-06-28T02:30:42.537Z,98099.88
2018-06-28T02:33:12.242Z,98103.23
2018-06-28T02:35:42.264Z,98107.17
2018-06-28T02:38:10.899Z,98102.89
2018-06-28T02:40:39.550Z,98105.05
2018-06-28T02:43:08.856Z,98100.12
2018-06-28T02:45:38.637Z,98098.77
2018-06-28T02:48:07.445Z,98099.61
2018-06-28T02:50:37.619Z,98094.62
2018-06-28T02:53:07.162Z,98097.39
2018-06-28T02:55:35.877Z,98093.72
2018-06-28T02:58:05.301Z,98097.39
2018-06-28T03:00:34.493Z,98097.02
2018-06-28T03:03:03.270Z,98096.41
2018-06-28T03:05:31.885Z,98091.23
2018-06-28T03:08:00.549Z,98087.41
2018-06-28T03:10:31.034Z,98094.20
2018-06-28T03:13:00.582Z,98094.09
2018-06-28T03:15:29.321Z,98097.61
2018-06-28T03:17:58.179Z,98101.53
2018-06-28T03:20:26.825Z,98100.12
2018-06-28T03:22:56.317Z,98098.78
2018-06-28T03:25:25.006Z,98095.63
2018-06-28T03:27:54.727Z,98092.73
2018-06-28T03:30:23.389Z,98089.30
2018-06-28T03:32:52.538Z,98098.59
2018-06-28T03:35:21.536Z,98101.36
2018-06-28T03:37:50.700Z,98107.95
2018-06-28T03:40:19.770Z,98113.00
2018-06-28T03:42:49.339Z,98110.39
2018-06-28T03:45:19.675Z,98113.79
2018-06-28T03:47:48.321Z,98111.02
2018-06-28T03:50:16.927Z,98113.05
2018-06-28T03:52:46.537Z,98113.79
2018-06-28T03:55:15.362Z,98116.13
2018-06-28T03:57:44.391Z,98114.19
2018-06-28T04:00:13.067Z,98112.72
2018-06-28T04:02:42.444Z,98114.46
2018-06-28T04:05:12.283Z,98109.98
2018-06-28T04:07:40.965Z,98116.70
2018-06-28T04:10:09.845Z,98110.95
2018-06-28T04:12:38.675Z,98104.44
2018-06-28T04:15:07.658Z,98107.58
2018-06-28T04:17:36.845Z,98098.77
2018-06-28T04:20:06.645Z,98102.30
2018-06-28T04:22:35.342Z,98099.77
2018-06-28T04:25:04.085Z,98107.65
2018-06-28T04:27:32.866Z,98110.02
2018-06-28T04:30:01.580Z,98106.83
2018-06-28T04:32:30.281Z,98102.34
2018-06-28T04:34:58.943Z,98108.49
2018-06-28T04:37:27.592Z,98099.73
2018-06-28T04:39:56.269Z,98109.22
2018-06-28T04:42:24.954Z,98112.27
2018-06-28T04:44:53.835Z,98111.89
2018-06-28T04:47:22.965Z,98107.36
2018-06-28T04:49:51.662Z,98106.37
2018-06-28T04:52:20.836Z,98110.80
2018-06-28T04:54:49.513Z,98105.73
2018-06-28T04:57:18.167Z,98105.29
2018-06-28T04:59:46.887Z,98108.02
2018-06-28T05:02:16.168Z,98106.14
2018-06-28T05:04:44.782Z,98111.89
2018-06-28T05:07:13.453Z,98114.16
2018-06-28T05:09:42.820Z,98108.11
2018-06-28T05:12:11.490Z,98113.53
2018-06-28T05:14:40.076Z,98110.50
2018-06-28T05:17:09.747Z,98113.25
2018-06-28T05:19:38.186Z,98105.97
2018-06-28T05:22:07.055Z,98107.67
2018-06-28T05:24:35.807Z,98111.11
2018-06-28T05:27:04.529Z,98114.14
2018-06-28T05:29:33.173Z,98111.26
2018-06-28T05:32:02.473Z,98113.78
2018-06-28T05:34:31.184Z,98106.02
2018-06-28T05:36:59.830Z,98112.59
2018-06-28T05:39:28.481Z,98109.25
2018-06-28T05:41:57.210Z,98107.65
2018-06-28T05:44:25.899Z,98103.33
2018-06-28T05:46:54.591Z,98111.96
2018-06-28T05:49:23.241Z,98115.50
2018-06-28T05:51:52.060Z,98111.19
2018-06-28T05:54:20.738Z,98110.87
2018-06-28T05:56:49.433Z,98104.33
2018-06-28T05:59:18.115Z,98107.98
2018-06-28T06:01:47.033Z,98111.67
2018-06-28T06:04:15.594Z,98105.11
2018-06-28T06:06:44.420Z,98112.30
2018-06-28T06:09:13.237Z,98108.50
2018-06-28T06:11:41.858Z,98107.61
2018-06-28T06:14:11.307Z,98104.95
2018-06-28T06:16:40.049Z,98110.25
2018-06-28T06:19:08.804Z,98115.34
2018-06-28T06:21:38.043Z,98111.98
2018-06-28T06:24:06.771Z,98114.73
2018-06-28T06:26:36.226Z,98115.18
2018-06-28T06:29:04.911Z,98118.45
2018-06-28T06:31:33.709Z,98109.31
2018-06-28T06:34:02.386Z,98114.66
2018-06-28T06:36:31.335Z,98109.75
2018-06-28T06:39:00.023Z,98116.06
2018-06-28T06:41:28.677Z,98111.53
2018-06-28T06:43:57.402Z,98115.02
2018-06-28T06:46:26.700Z,98117.35
2018-06-28T06:48:56.060Z,98113.42
2018-06-28T06:51:24.727Z,98107.98
2018-06-28T06:53:53.411Z,98102.41
2018-06-28T06:56:22.757Z,98106.82
2018-06-28T06:58:51.425Z,98104.66
2018-06-28T07:01:20.044Z,98102.34
2018-06-28T07:03:48.688Z,98095.93
2018-06-28T07:06:17.767Z,98093.41
2018-06-28T07:08:46.561Z,98088.18
2018-06-28T07:11:16.174Z,98089.91
2018-06-28T07:13:45.549Z,98088.50
2018-06-28T07:16:14.344Z,98094.55
2018-06-28T07:18:42.977Z,98095.05
2018-06-28T07:21:11.642Z,98089.59
2018-06-28T07:23:41.075Z,98088.41
2018-06-28T07:26:10.441Z,98073.36
2018-06-28T07:28:39.146Z,98073.17
2018-06-28T07:31:08.603Z,98072.48
2018-06-28T07:33:37.277Z,98077.23
2018-06-28T07:36:05.952Z,98075.64
2018-06-28T07:38:34.567Z,98084.72
2018-06-28T07:41:03.273Z,98077.44
2018-06-28T07:43:32.490Z,98086.95
2018-06-28T07:46:01.174Z,98084.22
2018-06-28T07:48:30.118Z,98080.34
2018-06-28T07:50:58.896Z,98071.41
2018-06-28T07:53:27.592Z,98068.59
2018-06-28T07:55:57.200Z,98072.87
2018-06-28T07:58:25.916Z,98070.03
2018-06-28T08:00:54.617Z,98073.83
2018-06-28T08:03:23.766Z,98069.21
2018-06-28T08:05:52.395Z,98071.77
2018-06-28T08:08:21.044Z,98063.23
2018-06-28T08:10:50.804Z,98068.98
2018-06-28T08:13:19.503Z,98069.11
2018-06-28T08:15:48.252Z,98071.19
2018-06-28T08:18:16.911Z,98069.65
2018-06-28T08:20:45.529Z,98065.01
2018-06-28T08:23:14.591Z,98072.33
2018-06-28T08:25:43.502Z,98067.64
2018-06-28T08:28:12.401Z,98065.67
2018-06-28T08:30:41.135Z,98064.60
2018-06-28T08:33:09.797Z,98055.95
2018-06-28T08:35:38.451Z,98068.23
2018-06-28T08:38:07.266Z,98063.23
2018-06-28T08:40:36.216Z,98061.58
2018-06-28T08:43:05.000Z,98058.31
2018-06-28T08:45:33.823Z,98055.70
2018-06-28T08:48:02.537Z,98057.45
2018-06-28T08:50:31.238Z,98052.91
2018-06-28T08:52:59.984Z,98053.51
2018-06-28T08:55:28.660Z,98062.66
2018-06-28T08:57:57.384Z,98056.96
2018-06-28T09:00:26.146Z,98066.77
2018-06-28T09:02:54.792Z,98058.63
2018-06-28T09:05:23.552Z,98059.61
2018-06-28T09:07:52.519Z,98057.42
2018-06-28T09:10:21.195Z,98050.09
2018-06-28T09:12:49.850Z,98049.63
2018-06-28T09:15:18.605Z,98049.39
2018-06-28T09:17:47.272Z,98045.64
2018-06-28T09:20:16.139Z,98046.88
2018-06-28T09:22:45.024Z,98047.09
2018-06-28T09:25:13.668Z,98048.36
2018-06-28T09:27:42.487Z,98043.95
2018-06-28T09:30:11.443Z,98041.23
2018-06-28T09:32:40.208Z,98042.31
2018-06-28T09:35:08.853Z,98033.52
2018-06-28T09:37:38.343Z,98035.73
2018-06-28T09:40:06.967Z,98029.54
2018-06-28T09:42:35.704Z,98027.19
2018-06-28T09:45:04.835Z,98024.73
2018-06-28T09:47:33.536Z,98031.76
2018-06-28T09:50:02.193Z,98025.75
2018-06-28T09:52:30.916Z,98026.59
2018-06-28T09:55:00.278Z,98019.50
2018-06-28T09:57:28.941Z,98023.41
2018-06-28T09:59:58.169Z,98022.17
2018-06-28T10:02:27.459Z,98033.55
2018-06-28T10:04:56.319Z,98031.34
2018-06-28T10:07:24.955Z,98032.44
2018-06-28T10:09:53.620Z,98032.94
2018-06-28T10:12:22.277Z,98030.78
2018-06-28T10:14:51.761Z,98034.20
2018-06-28T10:17:20.388Z,98032.05
2018-06-28T10:19:49.848Z,98038.07
2018-06-28T10:22:18.586Z,98038.86
2018-06-28T10:24:47.292Z,98030.19
2018-06-28T10:27:15.894Z,98033.86
2018-06-28T10:29:45.012Z,98035.59
2018-06-28T10:32:13.647Z,98032.84
2018-06-28T10:34:42.408Z,98034.95
2018-06-28T10:37:11.722Z,98037.05
2018-06-28T10:39:40.728Z,98031.83
2018-06-28T10:42:09.776Z,98030.42
2018-06-28T10:44:38.522Z,98028.48
2018-06-28T10:47:07.239Z,98031.41
2018-06-28T10:49:36.386Z,98029.78
2018-06-28T10:52:05.118Z,98024.25
2018-06-28T10:54:33.843Z,98029.24
2018-06-28T10:57:03.116Z,98026.00
2018-06-28T10:59:31.806Z,98024.12
2018-06-28T11:02:00.484Z,98028.06
2018-06-28T11:04:29.741Z,98028.80
2018-06-28T11:06:58.398Z,98032.39
2018-06-28T11:09:27.571Z,98031.81
2018-06-28T11:11:56.508Z,98034.13
2018-06-28T11:14:25.140Z,98032.54
2018-06-28T11:16:53.811Z,98036.86
2018-06-28T11:19:22.492Z,98039.35
2018-06-28T11:21:52.141Z,98026.26
2018-06-28T11:24:21.398Z,98024.34
2018-06-28T11:26:49.985Z,98021.73
2018-06-28T11:29:18.622Z,98017.81
2018-06-28T11:31:48.048Z,98011.80
2018-06-28T11:34:16.768Z,98016.80
2018-06-28T11:36:45.457Z,98016.53
2018-06-28T11:39:14.182Z,98014.91
2018-06-28T11:41:42.823Z,98010.67
2018-06-28T11:44:12.041Z,98010.23
2018-06-28T11:46:40.634Z,98011.37
2018-06-28T11:49:09.322Z,97999.24
2018-06-28T11:51:38.097Z,98002.37
2018-06-28T11:54:06.818Z,98002.38
2018-06-28T11:56:35.527Z,98002.94
2018-06-28T11:59:04.601Z,97998.94
2018-06-28T12:01:33.250Z,98004.70
2018-06-28T12:04:01.928Z,98001.97
2018-06-28T12:06:30.742Z,98002.90
2018-06-28T12:08:59.389Z,97997.25
2018-06-28T12:11:28.048Z,98002.58
2018-06-28T12:13:56.662Z,97997.28
2018-06-28T12:16:25.358Z,97994.84
2018-06-28T12:18:57.635Z,97991.39
2018-06-28T12:21:26.320Z,97998.81
2018-06-28T12:23:55.030Z,98012.03
2018-06-28T12:26:24.441Z,98011.64
2018-06-28T12:28:53.132Z,98003.66
2018-06-28T12:31:21.844Z,98008.00
2018-06-28T12:33:51.146Z,98011.25
2018-06-28T12:36:19.833Z,98005.95
2018-06-28T12:38:48.585Z,98002.87
2018-06-28T12:41:17.292Z,98005.76
2018-06-28T12:43:46.176Z,97998.13
2018-06-28T12:46:14.913Z,97994.45
2018-06-28T12:48:43.760Z,97988.38
2018-06-28T12:51:13.246Z,97987.67
2018-06-28T12:53:42.825Z,97982.88
2018-06-28T12:56:37.263Z,97985.19
2018-06-28T12:59:10.068Z,97977.20
2018-06-28T13:01:38.778Z,97973.66
2018-06-28T13:04:07.451Z,97972.70
2018-06-28T13:06:36.132Z,97970.17
2018-06-28T13:09:09.089Z,97968.32
2018-06-28T13:11:37.893Z,97965.08
2018-06-28T13:14:06.619Z,97964.20
2018-06-28T13:16:35.946Z,97957.36
2018-06-28T13:19:04.642Z,97958.73
2018-06-28T13:21:33.329Z,97959.52
2018-06-28T13:24:02.682Z,97949.91
2018-06-28T13:26:31.400Z,97946.54
2018-06-28T13:29:00.066Z,97944.94
2018-06-28T13:31:29.569Z,97944.87
2018-06-28T13:33:59.049Z,97947.05
2018-06-28T13:36:28.521Z,97934.50
2018-06-28T13:38:58.211Z,97937.03
2018-06-28T13:41:27.124Z,97935.66
2018-06-28T13:43:55.910Z,97934.84
2018-06-28T13:46:24.693Z,97941.14
2018-06-28T13:48:53.381Z,97939.60
2018-06-28T13:51:22.800Z,97936.31
2018-06-28T13:53:51.440Z,97930.83
2018-06-28T13:56:26.711Z,97937.73
2018-06-28T13:58:55.392Z,97934.89
2018-06-28T14:01:24.825Z,97933.27
2018-06-28T14:03:53.464Z,97933.84
2018-06-28T14:06:22.113Z,97933.84
2018-06-28T14:08:51.450Z,97930.08
2018-06-28T14:11:20.158Z,97928.00
2018-06-28T14:13:48.883Z,97929.00
2018-06-28T14:16:17.709Z,97924.48
2018-06-28T14:18:46.639Z,97929.61
2018-06-28T14:21:15.324Z,97925.50
2018-06-28T14:23:44.160Z,97928.45
2018-06-28T14:26:12.822Z,97924.31
2018-06-28T14:28:42.256Z,97917.91
2018-06-28T14:31:11.117Z,97922.45
2018-06-28T14:33:40.001Z,97917.69
2018-06-28T14:36:08.623Z,97920.33
2018-06-28T14:38:38.313Z,97911.02
2018-06-28T14:41:07.871Z,97917.98
2018-06-28T14:43:36.533Z,97918.06
2018-06-28T14:46:05.749Z,97921.73
2018-06-28T14:48:34.999Z,97926.11
2018-06-28T14:51:04.792Z,97921.17
2018-06-28T14:53:33.478Z,97912.61
2018-06-28T14:56:02.138Z,97904.01
2018-06-28T14:58:30.902Z,97902.73
2018-06-28T15:01:06.293Z,97903.56
2018-06-28T15:03:35.181Z,97905.53
2018-06-28T15:06:03.989Z,97904.86
2018-06-28T15:08:33.561Z,97909.58
2018-06-28T15:11:03.102Z,97908.55
2018-06-28T15:13:31.731Z,97916.98
2018-06-28T15:16:00.473Z,97911.57
2018-06-28T15:18:29.308Z,97909.12
2018-06-28T15:20:58.656Z,97908.23
2018-06-28T15:23:27.360Z,97910.59
2018-06-28T15:25:56.647Z,97915.67
2018-06-28T15:28:25.321Z,97919.71
2018-06-28T15:30:54.145Z,97924.06
2018-06-28T15:33:22.979Z,97925.50
2018-06-28T15:35:51.687Z,97920.57
2018-06-28T15:38:20.404Z,97915.95
2018-06-28T15:40:49.150Z,97917.22
2018-06-28T15:43:18.589Z,97918.49
2018-06-28T15:45:47.545Z,97912.94
2018-06-28T15:48:16.315Z,97902.38
2018-06-28T15:50:45.076Z,97905.81
2018-06-28T15:53:13.848Z,97911.11
2018-06-28T15:55:42.942Z,97907.27
2018-06-28T15:58:11.950Z,97910.88
2018-06-28T16:00:40.793Z,97901.27
2018-06-28T16:03:09.997Z,97894.34
2018-06-28T16:05:40.111Z,97890.84
2018-06-28T16:08:10.195Z,97889.94
2018-06-28T16:10:39.246Z,97889.06
2018-06-28T16:13:08.123Z,97883.50
2018-06-28T16:15:36.881Z,97881.97
2018-06-28T16:18:05.701Z,97879.05
2018-06-28T16:20:34.462Z,97873.45
2018-06-28T16:23:04.213Z,97865.88
2018-06-28T16:25:32.956Z,97872.20
2018-06-28T16:28:01.645Z,97866.05
2018-06-28T16:30:30.430Z,97866.14
2018-06-28T16:33:00.504Z,97865.38
2018-06-28T16:35:29.210Z,97864.36
2018-06-28T16:37:58.107Z,97859.13
2018-06-28T16:40:27.813Z,97863.94
2018-06-28T16:42:56.602Z,97856.23
2018-06-28T16:45:26.089Z,97857.69
2018-06-28T16:47:54.806Z,97861.48
2018-06-28T16:50:23.701Z,97861.81
2018-06-28T16:52:52.739Z,97865.34
2018-06-28T16:55:21.657Z,97859.42
2018-06-28T16:57:50.570Z,97859.95
2018-06-28T17:00:20.304Z,97860.13
2018-06-28T17:02:49.134Z,97855.31
2018-06-28T17:05:17.974Z,97866.62
2018-06-28T17:07:46.699Z,97860.08
2018-06-28T17:10:15.441Z,97869.80
2018-06-28T17:12:44.212Z,97871.70
2018-06-28T17:15:13.100Z,97878.67
2018-06-28T17:17:41.882Z,97881.16
2018-06-28T17:20:10.639Z,97880.86
2018-06-28T17:22:39.508Z,97884.92
2018-06-28T17:25:08.801Z,97884.13
2018-06-28T17:27:37.822Z,97883.95
2018-06-28T17:30:06.701Z,97892.73
2018-06-28T17:32:35.433Z,97896.42
2018-06-28T17:35:04.285Z,97889.73
2018-06-28T17:37:33.440Z,97895.92
2018-06-28T17:40:02.098Z,97904.94
2018-06-28T17:42:31.580Z,97901.34
2018-06-28T17:45:01.288Z,97906.86
2018-06-28T17:47:30.019Z,97905.16
2018-06-28T17:49:58.797Z,97910.28
2018-06-28T17:52:27.607Z,97904.52
2018-06-28T17:54:56.251Z,97912.10
2018-06-28T17:57:25.035Z,97906.34
2018-06-28T17:59:53.783Z,97903.22
2018-06-28T18:02:23.023Z,97907.44
2018-06-28T18:04:51.867Z,97912.54
2018-06-28T18:07:30.223Z,97910.84
2018-06-28T18:09:59.716Z,97911.34
2018-06-28T18:12:29.922Z,97910.97
2018-06-28T18:14:58.694Z,97917.70
2018-06-28T18:17:27.533Z,97912.77
2018-06-28T18:19:56.568Z,97916.08
2018-06-28T18:22:25.525Z,97907.89
2018-06-28T18:24:55.981Z,97913.39
2018-06-28T18:27:25.898Z,97909.17
2018-06-28T18:29:54.955Z,97908.50
2018-06-28T18:32:24.436Z,97908.95
2018-06-28T18:34:54.882Z,97904.63
2018-06-28T18:37:25.713Z,97907.06
2018-06-28T18:39:54.603Z,97910.13
2018-06-28T18:42:24.058Z,97907.52
2018-06-28T18:44:53.272Z,97904.87
2018-06-28T18:47:22.739Z,97909.07
2018-06-28T18:49:52.297Z,97910.59
2018-06-28T18:52:21.106Z,97914.25
2018-06-28T18:54:50.080Z,97915.00
2018-06-28T18:57:18.881Z,97915.64
2018-06-28T18:59:47.569Z,97911.90
2018-06-28T19:02:17.291Z,97907.13
2018-06-28T19:04:46.058Z,97911.14
2018-06-28T19:07:15.170Z,97911.81
2018-06-28T19:09:49.242Z,97900.03
2018-06-28T19:12:18.401Z,97900.83
2018-06-28T19:14:52.404Z,97905.34
2018-06-28T19:17:21.285Z,97903.54
2018-06-28T19:19:50.028Z,97903.88
2018-06-28T19:22:24.159Z,97901.06
2018-06-28T19:24:54.418Z,97899.70
2018-06-28T19:27:23.088Z,97904.90
2018-06-28T19:29:57.038Z,97913.31
2018-06-28T19:32:31.566Z,97902.53
2018-06-28T19:35:01.163Z,97909.89
2018-06-28T19:37:37.060Z,97907.28
2018-06-28T19:40:13.145Z,97913.44
2018-06-28T19:42:47.273Z,97913.65
2018-06-28T19:45:16.267Z,97907.86
2018-06-28T19:47:45.015Z,97905.13
2018-06-28T19:50:19.556Z,97908.43
2018-06-28T19:52:55.105Z,97908.20
2018-06-28T19:55:23.916Z,97899.22
2018-06-28T19:57:52.645Z,97904.68
2018-06-28T20:00:26.662Z,97888.22
2018-06-28T20:03:00.621Z,97894.12
2018-06-28T20:05:29.388Z,97889.80
2018-06-28T20:07:58.157Z,97887.30
2018-06-28T20:10:27.208Z,97890.70
2018-06-28T20:13:01.144Z,97890.37
2018-06-28T20:15:46.162Z,97892.66
2018-06-28T20:18:20.833Z,97891.94
2018-06-28T20:20:49.588Z,97889.80
2018-06-28T20:23:18.370Z,97891.85
2018-06-28T20:25:47.246Z,97892.98
2018-06-28T20:28:21.154Z,97892.42
2018-06-28T20:30:55.091Z,97887.66
2018-06-28T20:33:29.155Z,97886.95
2018-06-28T20:35:58.523Z,97894.12
2018-06-28T20:38:27.313Z,97888.05
2018-06-28T20:40:56.362Z,97897.39
2018-06-28T20:43:28.111Z,97896.72
2018-06-28T20:45:57.507Z,97897.97
2018-06-28T20:48:26.325Z,97902.48
2018-06-28T20:50:55.104Z,97902.36
2018-06-28T20:53:25.013Z,97906.70
2018-06-28T20:55:53.696Z,97901.77
2018-06-28T20:58:23.150Z,97905.53
2018-06-28T21:00:52.528Z,97916.05
2018-06-28T21:03:21.228Z,97920.49
2018-06-28T21:05:50.729Z,97914.55
2018-06-28T21:08:19.427Z,97916.23
2018-06-28T21:10:48.393Z,97917.63
2018-06-28T21:13:17.119Z,97910.58
2018-06-28T21:15:45.950Z,97905.77
2018-06-28T21:18:14.699Z,97905.77
2018-06-28T21:20:44.262Z,97904.27
2018-06-28T21:23:12.996Z,97909.44
2018-06-28T21:25:41.740Z,97904.36
2018-06-28T21:28:10.954Z,97901.59
2018-06-28T21:30:39.655Z,97902.86
2018-06-28T21:33:08.977Z,97906.42
2018-06-28T21:35:37.622Z,97905.63
2018-06-28T21:38:06.358Z,97893.29
2018-06-28T21:40:35.097Z,97896.10
2018-06-28T21:43:04.473Z,97893.95
2018-06-28T21:45:33.291Z,97895.11
2018-06-28T21:48:02.028Z,97882.58
2018-06-28T21:50:30.763Z,97882.34
2018-06-28T21:52:59.444Z,97881.34
2018-06-28T21:55:28.113Z,97877.30
2018-06-28T21:57:56.840Z,97873.77
2018-06-28T22:00:31.134Z,97877.75
2018-06-28T22:03:01.100Z,97875.16
2018-06-28T22:05:30.302Z,97872.66
2018-06-28T22:07:58.970Z,97874.51
2018-06-28T22:10:27.924Z,97879.91
2018-06-28T22:12:57.025Z,97865.67
2018-06-28T22:15:27.735Z,97867.70
2018-06-28T22:17:58.575Z,97867.53
2018-06-28T22:20:28.473Z,97861.75
2018-06-28T22:22:57.186Z,97857.90
2018-06-28T22:25:27.770Z,97857.77
2018-06-28T22:27:56.528Z,97852.69
2018-06-28T22:30:25.646Z,97850.47
2018-06-28T22:32:54.360Z,97850.64
2018-06-28T22:35:23.117Z,97853.47
2018-06-28T22:37:52.282Z,97838.36
2018-06-28T22:40:21.083Z,97837.59
2018-06-28T22:42:50.665Z,97831.59
2018-06-28T22:45:19.350Z,97835.94
2018-06-28T22:47:49.016Z,97832.95
2018-06-28T22:50:17.726Z,97830.95
2018-06-28T22:52:46.578Z,97827.56
2018-06-28T22:55:15.178Z,97826.69
2018-06-28T22:57:43.828Z,97829.31
2018-06-28T23:00:13.134Z,97816.45
2018-06-28T23:02:41.899Z,97828.61
2018-06-28T23:05:10.700Z,97825.32
2018-06-28T23:07:39.550Z,97820.91
2018-06-28T23:10:08.201Z,97818.41
2018-06-28T23:12:36.812Z,97810.47
2018-06-28T23:15:05.616Z,97815.44
2018-06-28T23:17:34.359Z,97810.90
2018-06-28T23:20:03.077Z,97817.23
2018-06-28T23:22:46.296Z,97818.27
2018-06-28T23:25:15.553Z,97824.51
2018-06-28T23:27:45.278Z,97829.62
2018-06-28T23:30:14.454Z,97824.53
2018-06-28T23:32:43.191Z,97823.97
2018-06-28T23:35:12.607Z,97823.53
2018-06-28T23:37:41.301Z,97812.18
2018-06-28T23:40:09.968Z,97817.16
2018-06-28T23:42:39.145Z,97813.05
2018-06-28T23:45:08.486Z,97801.02
2018-06-28T23:47:37.198Z,97806.58
2018-06-28T23:50:06.991Z,97799.31
2018-06-28T23:52:35.977Z,97801.03
2018-06-28T23:55:05.260Z,97801.73
2018-06-28T23:57:33.952Z,97804.12
